메인 페이지
METAR-TAF:

METAR-TAF

공항 :

무르탈라 모하메드 국제공항

라고스, 나이지리아

위도: 06-35N, 경도: 003-20E, 고도: 40m

현재 날씨관측

예보는 41분 전, 22:00시(UTC)에 발표되었습니다.
무풍
온도 25°C
습도 83%
기압 1017 hPa
시정 10km 이상
고도 900ft 상공 구름 보통

METAR: DNMM 182200Z 00000KT 9999 SCT009 25/22 Q1017 NOSIG

시각: 23:41 (22:41 UTC)

예보

예보는 7 시간 1분 전, 15:40시(UTC)에 발표되었습니다.
예보 대상 시간: 18일 18시부터 19일 24시까지 (UTC)
여러 방향의 바람 2kt
시정 10km 이상
일시적
18일 18시부터 18일 23시까지 (UTC)
남서12kt
고도 1000ft 상공 구름 많음
고도 1900ft 상공 구름 조금, 적란운.
뇌우
확률 30%
18일 18시부터 18일 21시까지 (UTC)
시정: 5000m
뇌우, 약한비
전환 중
19일 08시부터 19일 10시까지 (UTC)
서남서10kt
고도 1300ft 상공 구름 많음
고도 2000ft 상공 구름 조금, 적란운.

TAF: DNMM 181540Z 1818/1924 VRB02KT 9999 FEW0011 TEMPO 1818/1823 22012KT TS BKN010 FEW019CB PROB30 1818/1821 5000 -TSRA BECMG 1908/1910 24010KT BKN013 FEW020CB

4,000개 이상의 공항 관측 자료 및 예보 (METAR 및 TAF 보고).

지도상에서 검색 가능한 기상관측소가 노란 점과 빨간 점으로 표시되어 있습니다.

기상관측소 명을 보려면 표시 위로 마우스를 이동하세요.

날씨 관측과 예보를 보려면 클릭하세요.

지도 변경 : 확대하려면 엑스 표시가 있는 녹색 버튼, 축소하려면 빼기 표시가 있는 녹색 버튼, 다음 페이지의 지도를 보려면 녹색 화살표를 클릭하세요.


METAR-TAF: